Time;durP1;ratioP1;P1;durP2;ratioP2;P2;SDS_P1;SDS_P2;PMS_P1;PMS_P2;Temp;Humidity;BMP_temperature;BMP_pressure;BME280_temperature;BME280_humidity;BME280_pressure;Samples;Min_cycle;Max_cycle;Signal;HPM_P1;HPM_P2
2021/04/03 00:00:53;;;;;;;11.17;6.73;;;2.30;1.40;;;2.90;100.00;95522.56;657828;216;24540;-72
2021/04/03 00:03:22;;;;;;;8.50;6.43;;;2.30;1.40;;;2.89;100.00;95515.00;671606;211;24453;-72
2021/04/03 00:05:51;;;;;;;9.10;8.30;;;2.20;1.40;;;2.82;100.00;95515.86;670306;211;24420;-72
2021/04/03 00:08:21;;;;;;;7.40;6.73;;;2.10;1.40;;;2.72;100.00;95519.64;668923;211;29714;-72
2021/04/03 00:10:49;;;;;;;7.47;6.77;;;1.90;1.40;;;2.83;100.00;95517.47;670661;211;26536;-72
2021/04/03 00:13:18;;;;;;;6.80;6.10;;;2.00;1.40;;;2.90;99.95;95519.23;670539;211;24402;-72
2021/04/03 00:15:47;;;;;;;7.33;6.63;;;2.10;1.40;;;2.89;99.03;95518.91;673525;211;24383;-72
2021/04/03 00:18:16;;;;;;;8.67;7.77;;;2.10;1.40;;;2.90;98.61;95522.08;669786;211;24528;-72
2021/04/03 00:20:46;;;;;;;9.87;8.33;;;2.10;1.40;;;2.93;99.08;95516.75;668665;211;24404;-72
2021/04/03 00:23:14;;;;;;;8.00;6.90;;;2.20;1.40;;;2.94;99.56;95513.87;668571;211;24488;-72
2021/04/03 00:25:43;;;;;;;7.60;6.77;;;2.20;1.40;;;2.98;99.44;95510.29;661717;211;24530;-72
2021/04/03 00:28:12;;;;;;;7.73;7.03;;;2.20;1.40;;;3.02;99.07;95505.82;654790;215;24463;-72
2021/04/03 00:30:42;;;;;;;8.43;7.00;;;2.30;1.40;;;2.98;99.22;95506.38;642659;220;25155;-72
2021/04/03 00:35:51;;;;;;;9.20;8.18;;;2.30;1.40;;;3.04;99.98;95503.86;646909;216;31703;-72
2021/04/03 00:38:20;;;;;;;9.30;7.70;;;2.40;1.40;;;3.13;100.00;95496.37;643852;221;23463;-72
2021/04/03 00:40:50;;;;;;;7.97;6.93;;;2.60;1.40;;;3.19;100.00;95498.16;641449;221;24541;-71
2021/04/03 00:43:18;;;;;;;9.33;8.13;;;2.60;1.40;;;3.30;100.00;95501.88;639332;221;24503;-72
2021/04/03 00:45:47;;;;;;;7.33;6.63;;;2.70;1.40;;;3.41;99.57;95505.95;642059;221;25062;-73
2021/04/03 00:48:16;;;;;;;10.07;8.75;;;2.80;1.40;;;3.56;97.94;95510.89;635856;221;31726;-72
2021/04/03 00:50:45;;;;;;;8.53;7.10;;;2.80;1.40;;;3.69;96.81;95510.44;639624;221;23477;-71
2021/04/03 00:53:15;;;;;;;8.27;7.43;;;2.90;1.40;;;3.76;96.19;95507.88;639124;221;24906;-72
2021/04/03 00:55:44;;;;;;;8.97;8.03;;;3.00;1.40;;;3.86;95.20;95509.70;640505;221;24492;-71
2021/04/03 00:58:13;;;;;;;8.50;7.13;;;3.00;1.40;;;3.91;94.99;95511.46;641472;221;24849;-70
2021/04/03 01:00:42;;;;;;;7.37;6.67;;;3.10;1.40;;;4.06;94.80;95513.25;643905;221;24491;-71
2021/04/03 01:05:46;;;;;;;8.70;7.87;;;3.40;1.40;;;4.30;93.47;95519.35;646344;216;31575;-71
2021/04/03 01:08:15;;;;;;;9.20;8.20;;;3.50;1.40;;;4.31;93.77;95523.16;638993;221;25820;-72
2021/04/03 01:10:44;;;;;;;7.63;6.87;;;3.60;1.40;;;4.41;92.79;95522.66;642534;221;24516;-72
2021/04/03 01:13:43;;;;;;;9.97;8.10;;;3.70;1.40;;;4.49;91.84;95523.20;640563;221;24867;-72
2021/04/03 01:16:33;;;;;;;10.15;7.60;;;3.80;1.40;;;4.68;89.65;95515.97;649671;212;31567;-72
2021/04/03 01:19:25;;;;;;;11.55;8.40;;;3.90;1.40;;;4.73;88.87;95520.27;636903;220;31846;-72
2021/04/03 01:22:12;;;;;;;9.30;8.20;;;3.90;1.40;;;4.84;87.83;95529.61;647709;212;31793;-71
2021/04/03 01:24:58;;;;;;;8.20;7.40;;;3.90;1.40;;;4.76;88.04;95530.91;641799;221;23472;-72
2021/04/03 01:27:27;;;;;;;9.27;8.13;;;3.90;1.40;;;4.83;87.58;95532.64;622667;225;31982;-72
2021/04/03 01:30:22;;;;;;;8.50;7.70;;;4.00;1.40;;;4.89;87.12;95536.33;626621;225;24542;-72
2021/04/03 01:35:58;;;;;;;8.18;7.10;;;4.00;1.40;;;4.98;86.43;95541.61;647170;212;31565;-72
2021/04/03 01:38:48;;;;;;;9.40;7.73;;;4.00;1.40;;;4.90;86.90;95542.94;640583;221;23745;-72
2021/04/03 01:41:17;;;;;;;8.10;7.30;;;4.00;1.40;;;4.88;87.15;95544.33;637787;220;31777;-72
2021/04/03 01:43:46;;;;;;;7.80;7.00;;;3.90;1.40;;;4.89;87.10;95544.39;637168;221;23905;-73
2021/04/03 01:46:15;;;;;;;8.83;7.60;;;3.90;1.40;;;4.89;86.96;95551.70;639212;221;24495;-72
2021/04/03 01:48:44;;;;;;;7.10;6.40;;;3.90;1.40;;;4.82;87.06;95554.66;641208;221;24497;-72
2021/04/03 01:51:13;;;;;;;8.93;8.03;;;3.90;1.40;;;4.91;86.66;95559.86;641351;220;24575;-72
2021/04/03 01:53:42;;;;;;;8.83;6.67;;;3.90;1.40;;;4.71;87.89;95561.78;642148;221;24503;-72
2021/04/03 01:56:11;;;;;;;6.80;6.20;;;3.80;1.40;;;4.71;87.22;95559.15;640526;221;24504;-72
2021/04/03 01:58:40;;;;;;;7.80;6.57;;;3.80;1.40;;;4.61;87.49;95563.98;639857;220;25637;-72
2021/04/03 02:01:10;;;;;;;8.88;7.97;;;3.80;1.40;;;4.41;88.32;95556.27;643823;219;31707;-72
2021/04/03 02:03:40;;;;;;;7.77;7.03;;;3.70;99.90;;;4.42;87.86;95554.55;654098;218;27734;-72
2021/04/03 02:06:08;;;;;;;9.53;7.33;;;3.60;1.40;;;4.40;87.56;95556.20;653272;217;24467;-71
2021/04/03 02:08:37;;;;;;;9.70;7.60;;;3.60;1.40;;;4.45;86.62;95558.86;664850;211;31372;-72
2021/04/03 02:11:06;;;;;;;8.97;7.30;;;3.60;1.40;;;4.30;87.13;95565.72;667918;211;23437;-72
2021/04/03 02:13:36;;;;;;;8.60;7.17;;;3.60;1.40;;;4.32;86.92;95561.48;668291;211;24827;-72
2021/04/03 02:16:05;;;;;;;7.80;7.10;;;3.60;1.40;;;4.26;87.31;95557.36;667112;211;24454;-72
2021/04/03 02:18:34;;;;;;;8.97;7.10;;;3.50;1.40;;;4.19;87.43;95555.02;670828;211;24426;-72
2021/04/03 02:21:04;;;;;;;9.37;8.47;;;3.50;1.40;;;4.17;87.73;95554.20;668947;211;32036;-72
2021/04/03 02:23:34;;;;;;;7.80;7.00;;;3.50;99.90;;;4.25;87.45;95552.47;651457;216;24457;-72
2021/04/03 02:26:04;;;;;;;8.73;7.47;;;3.50;99.90;;;4.28;87.81;95553.64;648942;216;24747;-72
2021/04/03 02:28:34;;;;;;;8.30;7.13;;;3.50;99.90;;;4.27;87.30;95557.04;656041;215;25536;-72
2021/04/03 02:31:02;;;;;;;7.50;6.80;;;3.50;1.40;;;4.16;87.73;95556.41;656408;215;24493;-72
2021/04/03 02:35:54;;;;;;;9.75;7.57;;;3.40;99.90;;;4.05;88.26;95554.71;648411;216;32387;-72
2021/04/03 02:38:23;;;;;;;8.70;7.80;;;3.40;1.40;;;4.06;88.63;95552.95;642016;220;23481;-72
2021/04/03 02:40:52;;;;;;;8.07;7.27;;;3.40;1.40;;;4.14;87.72;95550.76;640293;220;24526;-72
2021/04/03 02:43:31;;;;;;;10.30;7.80;;;3.40;1.40;;;3.93;87.79;95549.72;641988;221;24571;-72
2021/04/03 02:46:02;;;;;;;7.50;6.67;;;3.30;1.40;;;3.91;87.37;95552.06;640428;221;29764;-72
2021/04/03 02:48:31;;;;;;;10.70;6.30;;;3.30;1.40;;;4.01;86.91;95550.45;643790;220;25057;-72
2021/04/03 02:51:00;;;;;;;8.18;7.25;;;3.30;1.40;;;4.08;86.28;95557.14;652040;216;31741;-72
2021/04/03 02:53:29;;;;;;;9.43;7.75;;;3.30;1.40;;;3.88;87.04;95557.97;647528;216;31628;-72
2021/04/03 02:55:59;;;;;;;10.80;7.07;;;3.20;1.40;;;3.89;87.70;95567.26;654687;216;27933;-72
2021/04/03 02:58:28;;;;;;;7.97;7.13;;;3.30;1.40;;;3.90;87.47;95569.17;656827;216;24450;-72
2021/04/03 03:00:57;;;;;;;7.80;7.07;;;3.30;1.40;;;4.05;87.14;95565.49;666325;211;24446;-72
2021/04/03 03:03:26;;;;;;;9.03;7.83;;;3.30;99.90;;;4.19;86.08;95569.19;671843;211;24638;-72
2021/04/03 03:05:57;;;;;;;7.20;6.50;;;3.40;1.40;;;4.31;84.85;95569.59;672737;211;25485;-72
2021/04/03 03:08:26;;;;;;;10.23;7.00;;;3.40;99.90;;;4.36;83.97;95571.86;665280;211;31406;-72
2021/04/03 03:10:55;;;;;;;11.70;7.10;;;3.40;1.40;;;4.36;83.18;95577.93;667831;211;23463;-72
2021/04/03 03:13:24;;;;;;;8.27;7.47;;;3.40;99.90;;;4.49;82.50;95571.03;672057;211;25482;-72
2021/04/03 03:15:53;;;;;;;8.40;7.57;;;3.50;1.40;;;4.47;82.07;95573.86;671478;211;24411;-73
2021/04/03 03:18:23;;;;;;;9.57;7.30;;;3.50;99.90;;;4.53;81.39;95572.59;669691;211;24450;-72
2021/04/03 03:20:52;;;;;;;6.77;5.77;;;3.50;1.40;;;4.53;81.12;95569.86;642694;221;26674;-72
2021/04/03 03:23:21;;;;;;;7.47;6.77;;;3.50;1.40;;;4.46;81.13;95566.05;655138;216;24462;-72
2021/04/03 03:28:30;;;;;;;8.20;6.62;;;3.50;1.40;;;4.40;80.76;95566.45;635364;217;31696;-72
2021/04/03 03:30:59;;;;;;;7.40;6.33;;;3.40;1.40;;;4.43;80.41;95566.95;623411;225;23534;-72
2021/04/03 03:35:51;;;;;;;10.13;6.62;;;3.50;99.90;;;4.53;79.42;95567.61;646731;216;32287;-72
2021/04/03 03:38:20;;;;;;;9.60;7.10;;;3.50;1.40;;;4.52;79.15;95563.80;635487;221;31798;-72
2021/04/03 03:40:49;;;;;;;9.20;6.77;;;3.50;1.40;;;4.61;78.45;95557.05;641384;221;23483;-71
2021/04/03 03:43:19;;;;;;;7.57;6.80;;;3.50;1.40;;;4.52;78.61;95561.11;637791;220;31722;-72
2021/04/03 03:45:48;;;;;;;8.83;6.50;;;3.40;1.40;;;4.33;79.93;95563.64;637600;221;23463;-72
2021/04/03 03:48:17;;;;;;;9.20;7.00;;;3.40;99.90;;;4.50;79.88;95560.78;640506;221;25533;-72
2021/04/03 03:50:46;;;;;;;7.17;6.47;;;3.40;99.90;;;4.49;79.96;95557.98;641037;221;24603;-72
2021/04/03 03:53:15;;;;;;;9.40;6.50;;;3.40;1.40;;;4.52;79.71;95561.59;639575;221;24498;-72
2021/04/03 03:55:44;;;;;;;8.65;6.40;;;3.40;1.40;;;4.64;78.88;95563.45;634813;221;31715;-72
2021/04/03 03:58:13;;;;;;;8.07;7.27;;;3.40;1.40;;;4.55;79.28;95566.16;639578;221;24908;-71
2021/04/03 04:00:42;;;;;;;7.80;7.00;;;3.40;99.90;;;4.47;79.13;95562.33;639548;220;24583;-71
2021/04/03 04:03:11;;;;;;;10.10;6.50;;;3.40;1.40;;;4.57;79.27;95562.78;638186;221;24510;-71
2021/04/03 04:05:40;;;;;;;10.03;6.90;;;3.40;1.40;;;4.53;79.13;95564.44;640733;220;24499;-71
2021/04/03 04:08:10;;;;;;;6.93;5.90;;;3.40;1.40;;;4.59;78.75;95567.25;641493;221;24997;-71
2021/04/03 04:10:38;;;;;;;8.15;7.35;;;3.40;1.40;;;4.66;78.37;95561.77;632861;221;31721;-71
2021/04/03 04:13:08;;;;;;;7.30;6.70;;;3.40;1.40;;;4.53;79.19;95564.39;640525;221;23502;-71
2021/04/03 04:15:37;;;;;;;11.43;7.30;;;3.40;1.40;;;4.60;78.98;95562.69;633760;221;31858;-71
2021/04/03 04:18:06;;;;;;;10.93;6.67;;;3.40;1.40;;;4.65;79.20;95565.69;636302;221;23538;-71
2021/04/03 04:20:35;;;;;;;9.05;6.97;;;3.40;1.40;;;4.66;79.13;95564.88;639084;220;31770;-71
2021/04/03 04:23:04;;;;;;;7.10;6.40;;;3.40;1.40;;;4.55;79.68;95572.34;642064;221;23472;-71
2021/04/03 04:25:33;;;;;;;7.10;6.40;;;3.40;1.40;;;4.44;79.21;95577.16;635372;221;24678;-71
2021/04/03 04:28:02;;;;;;;9.03;6.73;;;3.40;1.40;;;4.36;79.88;95577.98;645402;221;24484;-71
2021/04/03 04:30:31;;;;;;;9.68;6.80;;;3.30;1.40;;;4.38;79.83;95581.48;635078;220;31775;-71
2021/04/03 04:33:00;;;;;;;7.70;7.00;;;3.30;1.40;;;4.32;80.46;95586.17;629698;224;23500;-71
2021/04/03 04:35:50;;;;;;;9.75;7.25;;;3.30;1.40;;;4.34;80.72;95591.44;650226;216;31643;-72
2021/04/03 04:38:19;;;;;;;8.20;6.77;;;3.30;1.40;;;4.29;80.88;95600.50;643980;221;23499;-72
2021/04/03 04:40:48;;;;;;;9.60;7.33;;;3.20;99.90;;;4.15;81.56;95610.05;641545;221;24542;-71
2021/04/03 04:43:21;;;;;;;10.18;7.15;;;3.20;99.90;;;4.07;82.28;95610.41;636292;221;31786;-71
2021/04/03 04:45:50;;;;;;;8.13;6.80;;;3.20;1.40;;;4.07;82.41;95613.73;640413;221;23547;-71
2021/04/03 04:48:19;;;;;;;6.80;6.20;;;3.20;99.90;;;4.13;82.19;95615.62;643119;221;24710;-71
2021/04/03 04:50:48;;;;;;;9.52;7.62;;;3.20;99.90;;;4.15;81.80;95618.86;635171;221;31818;-71
2021/04/03 04:53:17;;;;;;;7.53;6.70;;;3.20;99.90;;;4.10;82.34;95617.32;638615;221;23456;-71
2021/04/03 04:55:47;;;;;;;7.40;6.60;;;3.20;99.90;;;4.13;82.63;95619.54;642058;220;24487;-71
2021/04/03 04:58:16;;;;;;;10.37;7.00;;;3.20;99.90;;;4.05;82.03;95627.45;642093;221;25955;-71
2021/04/03 05:00:45;;;;;;;7.63;6.77;;;3.20;99.90;;;4.07;81.11;95626.94;654566;216;26012;-71
2021/04/03 05:03:14;;;;;;;7.10;6.00;;;3.10;99.90;;;4.01;79.99;95631.67;667087;211;25512;-71
2021/04/03 05:05:43;;;;;;;9.70;5.27;;;3.10;99.90;;;3.89;80.43;95640.04;652678;216;24482;-71
2021/04/03 05:08:12;;;;;;;6.43;5.93;;;3.10;99.90;;;3.89;79.64;95639.61;668210;211;24426;-71
2021/04/03 05:10:41;;;;;;;6.70;5.50;;;3.10;99.90;;;3.83;78.41;95640.80;652359;216;28768;-71
2021/04/03 05:13:10;;;;;;;6.80;4.83;;;3.00;99.90;;;3.71;77.69;95640.30;655722;216;24466;-71
2021/04/03 05:15:39;;;;;;;6.37;5.53;;;2.90;99.90;;;3.72;77.43;95642.97;671160;211;24423;-71
2021/04/03 05:18:08;;;;;;;6.20;4.60;;;2.90;99.90;;;3.71;77.67;95651.08;669080;211;24404;-71
2021/04/03 05:20:38;;;;;;;7.37;5.50;;;2.90;99.90;;;3.75;77.76;95654.15;666853;211;24505;-71
2021/04/03 05:23:07;;;;;;;5.77;5.27;;;2.90;99.90;;;3.87;77.40;95660.52;641391;221;25654;-72
2021/04/03 05:25:36;;;;;;;6.17;5.30;;;3.00;99.90;;;3.90;77.23;95665.07;661955;211;28678;-71
2021/04/03 05:28:05;;;;;;;6.23;5.30;;;3.00;99.90;;;3.89;75.45;95661.55;633885;224;24629;-71
2021/04/03 05:35:51;;;;;;;8.20;4.53;;;3.00;99.90;;;3.89;73.93;95678.60;645795;212;31588;-77
2021/04/03 05:38:20;;;;;;;6.43;4.63;;;3.00;99.90;;;3.79;74.10;95685.66;641927;220;25632;-77
2021/04/03 05:40:49;;;;;;;9.03;5.27;;;3.00;99.90;;;3.92;73.75;95688.63;640460;220;28865;-78
2021/04/03 05:43:19;;;;;;;7.05;4.75;;;3.00;99.90;;;4.05;73.88;95687.81;634130;220;31769;-78
2021/04/03 05:45:48;;;;;;;6.47;4.23;;;3.10;99.90;;;4.02;73.70;95689.94;656404;217;24551;-77
2021/04/03 05:48:17;;;;;;;6.43;4.53;;;3.10;99.90;;;4.13;73.53;95688.44;669875;211;24452;-77
2021/04/03 05:50:46;;;;;;;9.07;4.40;;;3.20;99.90;;;4.28;73.58;95689.09;655020;216;24477;-78
2021/04/03 05:53:15;;;;;;;5.20;4.80;;;3.20;99.90;;;4.38;73.01;95692.32;656527;215;24430;-78
2021/04/03 05:55:44;;;;;;;7.17;4.33;;;3.30;99.90;;;4.36;72.93;95694.19;643783;220;27711;-77
2021/04/03 05:58:13;;;;;;;4.87;4.20;;;3.30;99.90;;;4.37;71.62;95698.55;649451;219;26641;-77
2021/04/03 06:00:42;;;;;;;5.53;3.80;;;3.30;99.90;;;4.48;71.84;95702.39;653192;217;24447;-77
2021/04/03 06:03:11;;;;;;;5.37;4.03;;;3.40;99.90;;;4.52;71.70;95706.06;669553;211;24458;-77
2021/04/03 06:05:41;;;;;;;4.47;4.07;;;3.40;99.90;;;4.51;71.05;95708.42;668523;211;24411;-77
2021/04/03 06:13:23;;;;;;;5.07;4.10;;;3.70;99.90;;;5.03;70.25;95716.86;646207;212;31571;-77
2021/04/03 06:15:52;;;;;;;6.97;3.97;;;3.70;99.90;;;5.09;69.79;95719.52;636221;221;31767;-77
2021/04/03 06:18:22;;;;;;;4.33;3.90;;;3.70;99.90;;;4.98;69.54;95721.77;642329;221;23502;-78
2021/04/03 06:23:31;;;;;;;4.47;4.00;;;3.70;99.90;;;4.91;69.78;95719.31;622524;222;32048;-77
2021/04/03 06:26:00;;;;;;;5.63;4.10;;;3.70;99.90;;;4.70;69.33;95721.88;637115;220;28110;-78
2021/04/03 06:28:30;;;;;;;6.20;4.00;;;3.70;99.90;;;4.77;69.38;95725.08;609399;234;24711;-77
2021/04/03 06:31:00;;;;;;;9.43;5.57;;;3.80;99.90;;;4.89;68.82;95727.09;605939;234;26132;-77
2021/04/03 06:36:06;;;;;;;4.80;3.30;;;3.80;99.90;;;5.17;68.26;95733.63;645929;212;42849;-75
2021/04/03 06:38:35;;;;;;;4.70;3.55;;;3.90;99.90;;;5.21;68.29;95731.41;635941;220;31767;-76
2021/04/03 06:41:15;;;;;;;4.23;3.53;;;3.90;99.90;;;5.31;68.46;95731.88;640848;221;23473;-76
2021/04/03 06:43:44;;;;;;;11.00;3.70;;;4.10;99.90;;;5.30;67.69;95730.70;639411;220;24537;-77
2021/04/03 06:46:23;;;;;;;6.30;4.12;;;4.10;99.90;;;5.40;67.54;95731.23;627314;220;31781;-75
2021/04/03 06:48:53;;;;;;;4.57;3.77;;;4.00;99.90;;;5.36;68.12;95736.73;671594;211;25522;-76
2021/04/03 06:51:23;;;;;;;10.07;4.90;;;4.10;99.90;;;5.24;67.62;95738.95;667172;211;24496;-76
2021/04/03 06:53:52;;;;;;;4.47;3.60;;;4.00;99.90;;;5.15;68.06;95745.83;668712;211;24390;-76
2021/04/03 06:56:21;;;;;;;5.37;3.57;;;4.00;99.90;;;5.30;68.22;95746.50;668961;211;24419;-75
2021/04/03 06:58:58;;;;;;;4.00;3.60;;;4.00;99.90;;;5.54;67.80;95757.94;654634;216;25797;-77
2021/04/03 07:01:27;;;;;;;5.97;3.63;;;4.10;99.90;;;5.63;67.37;95758.37;666947;211;24717;-77
2021/04/03 07:03:57;;;;;;;6.87;4.23;;;4.20;99.90;;;5.87;66.97;95762.05;669503;211;24421;-76
2021/04/03 07:06:26;;;;;;;7.20;3.80;;;4.40;99.90;;;6.02;66.61;95757.81;668416;211;24443;-78
2021/04/03 07:08:55;;;;;;;5.43;4.93;;;4.40;99.90;;;5.79;65.55;95763.16;670687;211;24468;-76
2021/04/03 07:11:24;;;;;;;4.27;3.60;;;4.40;99.90;;;5.83;66.49;95764.30;671357;211;24446;-75
2021/04/03 07:13:53;;;;;;;4.70;3.83;;;4.50;99.90;;;5.67;66.42;95764.13;666419;211;28716;-75
2021/04/03 07:16:22;;;;;;;5.07;4.67;;;4.50;99.90;;;5.96;65.85;95761.84;656109;216;24497;-77
2021/04/03 07:18:52;;;;;;;5.97;3.40;;;4.70;99.90;;;6.02;65.56;95762.17;654634;216;24458;-77
2021/04/03 07:21:21;;;;;;;5.90;4.53;;;4.70;99.90;;;6.14;65.27;95768.08;666996;211;24432;-76
2021/04/03 07:23:50;;;;;;;4.10;3.70;;;4.80;99.90;;;5.88;66.72;95771.78;652898;216;24567;-77
2021/04/03 07:26:19;;;;;;;5.85;4.30;;;4.80;99.90;;;5.87;66.90;95774.42;663262;211;31531;-77
2021/04/03 07:28:48;;;;;;;6.60;3.83;;;4.80;99.90;;;5.65;67.46;95779.13;654974;216;23522;-77
2021/04/03 07:31:38;;;;;;;5.13;4.20;;;4.70;99.90;;;6.08;67.15;95781.77;653404;216;25747;-77
2021/04/03 07:35:58;;;;;;;6.95;4.15;;;5.10;99.90;;;6.23;66.86;95777.17;646372;216;31595;-77
2021/04/03 07:38:28;;;;;;;5.40;4.17;;;5.30;99.90;;;6.74;65.21;95776.04;640740;220;23500;-77
2021/04/03 07:40:58;;;;;;;5.17;3.87;;;5.80;99.90;;;7.07;62.17;95779.03;642482;221;24502;-77
2021/04/03 07:43:36;;;;;;;6.40;4.20;;;5.80;99.90;;;7.40;61.44;95778.78;635906;221;31818;-78
2021/04/03 07:46:05;;;;;;;6.40;4.57;;;6.00;99.90;;;7.01;61.49;95785.66;641845;220;24563;-76
2021/04/03 07:48:43;;;;;;;7.90;4.10;;;5.80;99.90;;;7.41;60.98;95783.36;643536;221;24484;-77
2021/04/03 07:51:42;;;;;;;5.33;4.00;;;6.00;99.90;;;7.50;60.21;95788.53;641617;220;24718;-77
2021/04/03 07:54:13;;;;;;;4.43;3.97;;;6.00;99.90;;;7.51;60.50;95788.69;638483;221;24501;-76
2021/04/03 07:56:56;;;;;;;4.40;4.00;;;6.00;99.90;;;8.02;58.65;95788.60;647254;220;24503;-76
2021/04/03 07:59:47;;;;;;;4.10;3.80;;;6.50;99.90;;;7.77;58.03;95789.89;657135;215;24828;-76
2021/04/03 08:02:15;;;;;;;5.00;4.23;;;6.20;99.90;;;7.59;58.61;95800.90;670251;211;24435;-76
2021/04/03 08:04:45;;;;;;;4.53;4.07;;;6.50;99.90;;;8.24;58.65;95794.27;656136;216;24544;-77
2021/04/03 08:07:14;;;;;;;6.17;5.30;;;6.80;99.90;;;8.36;58.24;95797.17;669806;211;24448;-76
2021/04/03 08:09:43;;;;;;;5.67;4.80;;;6.60;99.90;;;8.70;56.32;95791.70;654603;216;24567;-76
2021/04/03 08:12:12;;;;;;;5.93;3.30;;;6.50;99.90;;;7.75;56.30;95806.52;656387;216;24439;-77
2021/04/03 08:14:41;;;;;;;3.70;3.40;;;6.10;99.90;;;7.09;58.91;95803.02;671711;211;24618;-77
2021/04/03 08:17:10;;;;;;;4.53;3.90;;;5.60;99.90;;;6.96;60.01;95800.92;654498;216;24529;-77
2021/04/03 08:19:39;;;;;;;5.07;4.03;;;5.50;99.90;;;7.04;58.69;95804.19;670544;211;24415;-76
2021/04/03 08:22:09;;;;;;;4.00;3.70;;;5.50;99.90;;;6.79;60.06;95803.84;672512;211;24454;-76
2021/04/03 08:24:38;;;;;;;4.33;3.70;;;5.60;99.90;;;6.86;59.73;95805.39;653816;216;24459;-76
2021/04/03 08:27:08;;;;;;;3.93;3.63;;;5.60;99.90;;;6.82;59.56;95807.17;633129;224;24591;-76
2021/04/03 08:29:37;;;;;;;5.07;4.20;;;5.70;99.90;;;6.66;58.92;95805.66;642803;220;24486;-76
2021/04/03 08:32:07;;;;;;;7.40;3.90;;;5.50;99.90;;;6.71;58.99;95808.91;653426;215;24576;-76
2021/04/03 08:35:51;;;;;;;5.18;4.28;;;5.60;99.90;;;6.92;58.62;95810.20;647848;212;31767;-78
2021/04/03 08:38:21;;;;;;;5.53;4.12;;;5.70;99.90;;;7.29;58.96;95807.14;636637;220;31834;-78
2021/04/03 08:40:50;;;;;;;5.10;4.60;;;6.10;99.90;;;8.21;56.42;95805.58;634639;221;31748;-77
2021/04/03 08:43:20;;;;;;;4.87;4.47;;;6.90;99.90;;;8.58;55.77;95800.19;639315;221;24511;-77
2021/04/03 08:45:49;;;;;;;5.27;4.77;;;7.60;99.90;;;9.18;55.47;95806.41;640813;221;24547;-76
2021/04/03 08:48:18;;;;;;;8.10;4.40;;;7.90;99.90;;;9.06;54.01;95801.79;642232;221;24528;-78
2021/04/03 08:50:47;;;;;;;4.40;3.40;;;8.20;99.90;;;10.12;54.20;95800.50;644023;221;24469;-76
2021/04/03 08:53:17;;;;;;;2.90;2.70;;;8.90;99.90;;;9.91;49.54;95807.09;640377;221;24504;-77
2021/04/03 08:55:46;;;;;;;3.50;3.20;;;8.00;99.90;;;8.44;50.05;95805.14;640388;221;27873;-77
2021/04/03 08:58:15;;;;;;;3.93;3.63;;;6.80;99.90;;;7.49;52.58;95811.80;639331;221;24526;-77
2021/04/03 09:00:44;;;;;;;4.00;3.60;;;6.20;99.90;;;7.40;52.92;95814.28;641158;221;29818;-76
2021/04/03 09:03:13;;;;;;;5.63;3.77;;;6.10;99.90;;;7.33;53.56;95818.02;642403;221;24561;-76
2021/04/03 09:05:49;;;;;;;4.00;3.70;;;5.90;99.90;;;7.66;54.60;95816.98;640393;221;24520;-77
2021/04/03 09:08:22;;;;;;;4.47;4.07;;;6.20;99.90;;;7.82;53.48;95820.06;642696;221;24495;-78
2021/04/03 09:10:55;;;;;;;3.67;3.37;;;6.30;99.90;;;7.66;52.68;95822.22;641034;221;24516;-78
2021/04/03 09:13:43;;;;;;;3.60;3.30;;;6.10;99.90;;;7.72;52.16;95819.76;633252;221;31742;-77
2021/04/03 09:16:12;;;;;;;4.00;3.60;;;6.00;99.90;;;7.58;52.98;95821.57;634443;221;31762;-78
2021/04/03 09:18:42;;;;;;;4.03;3.63;;;6.10;99.90;;;7.57;54.19;95829.34;640806;221;23498;-77
2021/04/03 09:21:18;;;;;;;4.43;3.63;;;6.20;99.90;;;7.86;53.33;95830.52;641000;220;24519;-78
2021/04/03 09:23:50;;;;;;;4.93;3.90;;;6.20;99.90;;;7.88;52.24;95832.34;642503;221;24496;-77
2021/04/03 09:26:30;;;;;;;5.00;4.57;;;6.30;99.90;;;8.09;52.19;95834.36;634009;221;24559;-77
2021/04/03 09:29:11;;;;;;;3.80;3.33;;;6.40;99.90;;;8.06;51.68;95836.70;627966;225;24646;-78
2021/04/03 09:31:41;;;;;;;3.90;3.60;;;6.50;99.90;;;7.79;51.77;95838.99;630643;224;26655;-79
2021/04/03 09:38:33;;;;;;;6.22;3.67;;;6.50;99.90;;;7.87;51.39;95844.97;647145;212;31587;-77
2021/04/03 09:41:00;;;;;;;4.97;3.78;;;6.20;99.90;;;7.47;52.98;95842.23;643445;219;31707;-77
2021/04/03 09:46:04;;;;;;;5.80;3.75;;;5.90;99.90;;;7.36;52.55;95842.77;632218;222;31794;-78
2021/04/03 09:48:33;;;;;;;3.20;2.90;;;5.90;99.90;;;7.33;52.38;95841.87;627896;225;23948;-78
2021/04/03 09:51:05;;;;;;;2.80;2.60;;;6.00;99.90;;;7.29;51.65;95842.31;626383;225;25024;-78
2021/04/03 09:53:34;;;;;;;4.00;2.93;;;6.10;99.90;;;7.50;52.05;95842.05;625732;225;24587;-77
2021/04/03 09:56:03;;;;;;;3.95;3.28;;;6.20;99.90;;;7.58;50.77;95842.23;622300;226;32026;-78
2021/04/03 09:58:32;;;;;;;4.43;3.20;;;6.30;99.90;;;7.59;51.06;95840.56;628976;226;23475;-78
2021/04/03 10:01:02;;;;;;;3.60;3.40;;;6.30;99.90;;;8.09;50.77;95839.43;624452;226;24543;-78
2021/04/03 10:03:31;;;;;;;5.63;3.33;;;6.60;99.90;;;8.30;50.15;95844.51;626113;226;24557;-78
2021/04/03 10:06:01;;;;;;;5.33;3.67;;;6.70;99.90;;;8.28;50.52;95843.28;627319;226;24568;-78
2021/04/03 10:08:29;;;;;;;3.93;3.33;;;6.70;99.90;;;7.96;50.86;95850.27;628359;226;29912;-78
2021/04/03 10:10:58;;;;;;;5.50;5.03;;;6.50;99.90;;;7.99;51.83;95850.75;627985;227;24545;-79
2021/04/03 10:13:27;;;;;;;5.50;3.90;;;6.50;99.90;;;8.17;51.22;95849.32;624231;226;24728;-76
2021/04/03 10:15:56;;;;;;;4.20;3.90;;;6.50;99.90;;;7.73;52.55;95854.52;625358;226;24557;-76
2021/04/03 10:18:25;;;;;;;4.50;3.83;;;6.50;99.90;;;7.70;53.09;95857.55;628402;224;24614;-77
2021/04/03 10:20:55;;;;;;;4.27;3.30;;;6.50;99.90;;;7.88;53.13;95856.69;628939;226;25087;-76
2021/04/03 10:23:24;;;;;;;3.57;3.27;;;6.60;99.90;;;8.17;51.17;95856.98;625555;226;24549;-78
2021/04/03 10:25:53;;;;;;;4.10;3.08;;;6.70;99.90;;;8.03;52.68;95857.88;601886;230;43235;-76
2021/04/03 10:28:22;;;;;;;6.13;4.17;;;6.70;99.90;;;8.34;52.88;95855.00;615346;229;23547;-77
2021/04/03 10:30:51;;;;;;;6.47;3.40;;;7.00;99.90;;;8.58;51.66;95856.83;609749;229;32072;-77
2021/04/03 10:35:51;;;;;;;4.60;3.70;;;7.00;99.90;;;8.87;51.97;95861.44;648256;212;31648;-78
2021/04/03 10:38:20;;;;;;;4.50;4.10;;;7.30;99.90;;;8.88;51.91;95855.37;642076;221;23547;-78
2021/04/03 10:40:49;;;;;;;3.50;3.20;;;7.40;99.90;;;8.86;49.01;95854.25;642988;221;24545;-78
2021/04/03 10:43:18;;;;;;;8.70;3.37;;;7.40;99.90;;;8.89;49.63;95859.73;641242;220;24507;-78
2021/04/03 10:45:47;;;;;;;3.50;3.20;;;7.30;99.90;;;9.09;50.89;95859.80;640995;221;28760;-79
2021/04/03 10:50:50;;;;;;;4.00;3.10;;;7.80;99.90;;;9.89;47.21;95866.55;650054;212;31590;-78
2021/04/03 10:53:20;;;;;;;6.50;4.00;;;8.10;99.90;;;9.48;47.27;95866.56;642512;220;23470;-79
2021/04/03 10:55:50;;;;;;;4.03;3.73;;;7.90;99.90;;;9.93;46.94;95870.45;642615;221;24529;-77
2021/04/03 10:58:19;;;;;;;3.47;3.17;;;8.10;99.90;;;10.14;47.47;95864.23;641112;221;27820;-78
2021/04/03 11:00:48;;;;;;;4.63;3.23;;;8.50;99.90;;;10.41;46.34;95866.45;640087;221;23524;-78
2021/04/03 11:03:17;;;;;;;3.72;3.10;;;8.70;99.90;;;10.54;44.62;95865.02;635839;221;31817;-77
2021/04/03 11:05:46;;;;;;;4.73;3.73;;;8.40;99.90;;;10.68;44.09;95863.03;642037;220;23660;-77
2021/04/03 11:08:16;;;;;;;2.97;2.77;;;8.60;99.90;;;10.77;43.35;95866.37;640056;221;24496;-79
2021/04/03 11:10:44;;;;;;;3.20;2.93;;;8.70;99.90;;;10.71;44.48;95870.47;640508;221;24535;-78
2021/04/03 11:13:13;;;;;;;3.07;2.63;;;8.70;99.90;;;11.05;44.24;95867.43;640938;221;25204;-78
2021/04/03 11:15:44;;;;;;;4.33;3.03;;;8.70;99.90;;;11.13;43.77;95870.81;642085;220;24500;-79
2021/04/03 11:18:12;;;;;;;4.20;2.50;;;8.90;99.90;;;11.25;43.72;95870.95;634804;221;43190;-78
2021/04/03 11:20:41;;;;;;;3.85;2.95;;;8.90;99.90;;;11.08;42.14;95871.07;635081;221;31688;-78
2021/04/03 11:23:10;;;;;;;5.10;3.70;;;8.80;99.90;;;11.07;42.40;95870.44;642782;221;24094;-78
2021/04/03 11:25:39;;;;;;;4.30;2.97;;;8.50;99.90;;;10.45;43.65;95877.17;632063;221;25018;-78
2021/04/03 11:28:08;;;;;;;3.47;3.23;;;8.20;99.90;;;10.59;43.61;95875.63;633765;224;27915;-78
2021/04/03 11:30:37;;;;;;;3.97;2.70;;;8.30;99.90;;;10.79;43.14;95872.28;655644;216;24453;-78
2021/04/03 11:35:51;;;;;;;4.53;3.30;;;8.80;99.90;;;11.69;43.09;95864.93;648244;216;31593;-78
2021/04/03 11:41:00;;;;;;;2.63;2.40;;;9.60;99.90;;;13.85;39.55;95862.34;619887;222;31977;-75